Time;durP1;ratioP1;P1;durP2;ratioP2;P2;SDS_P1;SDS_P2;PMS_P1;PMS_P2;Temp;Humidity;BMP_temperature;BMP_pressure;BME280_temperature;BME280_humidity;BME280_pressure;Samples;Min_cycle;Max_cycle;Signal;HPM_P1;HPM_P2
2022/05/21 00:01:30;;;;;;;;;;;;;;;;;;6223056;23;19930;-84
2022/05/21 00:03:56;;;;;;;;;;;;;;;;;;6247481;22;19980;-84
2022/05/21 00:06:22;;;;;;;;;;;;;;;;;;6257421;22;20689;-84
2022/05/21 00:08:49;;;;;;;;;;;;;;;;;;6262604;22;20220;-84
2022/05/21 00:11:15;;;;;;;;;;;;;;;;;;6231215;22;20347;-84
2022/05/21 00:13:41;;;;;;;;;;;;;;;;;;6205751;22;19919;-84
2022/05/21 00:16:07;;;;;;;;;;;;;;;;;;6257060;22;20404;-84
2022/05/21 00:18:34;;;;;;;;;;;;;;;;;;6230052;22;20416;-84
2022/05/21 00:21:02;;;;;;;;;;;;;;;;;;6232886;22;19923;-84
2022/05/21 00:23:29;;;;;;;;;;;;;;;;;;6230192;22;19920;-84
2022/05/21 00:25:54;;;;;;;;;;;;;;;;;;6210037;22;19946;-84
2022/05/21 00:28:28;;;;;;;;;;;;;;;;;;6230091;22;20303;-84
2022/05/21 00:30:55;;;;;;;;;;;;;;;;;;6230724;22;19993;-84
2022/05/21 00:33:22;;;;;;;;;;;;;;;;;;6229273;22;19922;-84
2022/05/21 00:35:48;;;;;;;;;;;;;;;;;;6256740;22;20500;-84
2022/05/21 00:38:17;;;;;;;;;;;;;;;;;;6202709;22;22723;-85
2022/05/21 00:40:43;;;;;;;;;;;;;;;;;;6206021;22;19973;-84
2022/05/21 00:43:09;;;;;;;;;;;;;;;;;;6230808;22;19990;-85
2022/05/21 00:45:35;;;;;;;;;;;;;;;;;;6226730;22;19953;-84
2022/05/21 00:48:01;;;;;;;;;;;;;;;;;;6233588;22;19965;-84
2022/05/21 00:50:27;;;;;;;;;;;;;;;;;;6207644;22;19965;-85
2022/05/21 00:52:53;;;;;;;;;;;;;;;;;;6208658;22;19916;-84
2022/05/21 00:55:19;;;;;;;;;;;;;;;;;;6233076;22;20023;-84
2022/05/21 00:57:45;;;;;;;;;;;;;;;;;;6233288;22;19919;-84
2022/05/21 01:00:11;;;;;;;;;;;;;;;;;;6207319;22;20048;-84
2022/05/21 01:02:37;;;;;;;;;;;;;;;;;;6229463;22;19943;-85
2022/05/21 01:05:02;;;;;;;;;;;;;;;;;;6234358;22;19915;-84
2022/05/21 01:07:28;;;;;;;;;;;;;;;;;;6232391;22;19955;-84
2022/05/21 01:09:54;;;;;;;;;;;;;;;;;;6233007;22;19922;-84
2022/05/21 01:12:20;;;;;;;;;;;;;;;;;;6233352;22;19923;-84
2022/05/21 01:14:49;;;;;;;;;;;;;;;;;;6210224;22;19919;-84
2022/05/21 01:17:15;;;;;;;;;;;;;;;;;;6259124;22;20014;-85
2022/05/21 01:19:41;;;;;;;;;;;;;;;;;;6207698;22;19954;-84
2022/05/21 01:22:07;;;;;;;;;;;;;;;;;;6208490;22;20010;-84
2022/05/21 01:24:33;;;;;;;;;;;;;;;;;;6232106;22;19920;-85
2022/05/21 01:26:59;;;;;;;;;;;;;;;;;;6210177;22;19934;-84
2022/05/21 01:29:25;;;;;;;;;;;;;;;;;;6204921;22;19930;-84
2022/05/21 01:31:51;;;;;;;;;;;;;;;;;;6208010;22;19922;-84
2022/05/21 01:34:17;;;;;;;;;;;;;;;;;;6206250;22;19927;-84
2022/05/21 01:36:42;;;;;;;;;;;;;;;;;;6234336;22;20021;-84
2022/05/21 01:39:08;;;;;;;;;;;;;;;;;;6207525;22;19919;-84
2022/05/21 01:41:34;;;;;;;;;;;;;;;;;;6204796;22;19923;-85
2022/05/21 01:46:45;;;;;;;;;;;;;;;;;;6235062;22;20387;-84
2022/05/21 01:49:14;;;;;;;;;;;;;;;;;;6208194;22;19915;-85
2022/05/21 01:51:40;;;;;;;;;;;;;;;;;;6233594;22;20418;-85
2022/05/21 01:54:06;;;;;;;;;;;;;;;;;;6232768;22;19919;-84
2022/05/21 01:56:32;;;;;;;;;;;;;;;;;;6206409;22;20331;-84
2022/05/21 01:58:58;;;;;;;;;;;;;;;;;;6208146;22;19926;-84
2022/05/21 02:01:25;;;;;;;;;;;;;;;;;;6260385;22;19923;-85
2022/05/21 02:03:51;;;;;;;;;;;;;;;;;;6202699;23;19923;-85
2022/05/21 02:06:17;;;;;;;;;;;;;;;;;;6227452;23;20226;-85
2022/05/21 02:08:43;;;;;;;;;;;;;;;;;;6229867;23;19920;-85
2022/05/21 02:11:08;;;;;;;;;;;;;;;;;;6229658;23;19916;-85
2022/05/21 02:13:35;;;;;;;;;;;;;;;;;;6228391;23;20237;-85
2022/05/21 02:16:01;;;;;;;;;;;;;;;;;;6234603;22;19985;-84
2022/05/21 02:18:27;;;;;;;;;;;;;;;;;;6227745;23;20336;-85
2022/05/21 02:20:53;;;;;;;;;;;;;;;;;;6204003;23;19977;-84
2022/05/21 02:23:19;;;;;;;;;;;;;;;;;;6228780;23;19965;-85
2022/05/21 02:25:45;;;;;;;;;;;;;;;;;;6204198;23;19926;-84
2022/05/21 02:28:14;;;;;;;;;;;;;;;;;;6205090;23;19927;-85
2022/05/21 02:30:40;;;;;;;;;;;;;;;;;;6229992;23;19920;-84
2022/05/21 02:33:06;;;;;;;;;;;;;;;;;;6229634;23;19942;-85
2022/05/21 02:35:32;;;;;;;;;;;;;;;;;;6202995;23;20016;-85
2022/05/21 02:40:42;;;;;;;;;;;;;;;;;;6229518;23;20408;-84
2022/05/21 02:43:08;;;;;;;;;;;;;;;;;;6229718;23;19920;-84
2022/05/21 02:45:34;;;;;;;;;;;;;;;;;;6227279;23;19926;-85
2022/05/21 02:48:00;;;;;;;;;;;;;;;;;;6227716;23;19919;-85
2022/05/21 02:50:26;;;;;;;;;;;;;;;;;;6227172;23;20289;-85
2022/05/21 02:52:52;;;;;;;;;;;;;;;;;;6203831;23;19977;-84
2022/05/21 02:55:18;;;;;;;;;;;;;;;;;;6227998;23;20302;-85
2022/05/21 02:57:44;;;;;;;;;;;;;;;;;;6228836;23;20336;-84
2022/05/21 03:00:10;;;;;;;;;;;;;;;;;;6203812;23;20769;-85
2022/05/21 03:02:36;;;;;;;;;;;;;;;;;;6200479;23;20243;-85
2022/05/21 03:05:03;;;;;;;;;;;;;;;;;;6223801;23;19985;-85
2022/05/21 03:07:29;;;;;;;;;;;;;;;;;;6224161;23;19930;-85
2022/05/21 03:12:40;;;;;;;;;;;;;;;;;;6227292;23;19926;-85
2022/05/21 03:15:06;;;;;;;;;;;;;;;;;;6226496;23;19920;-85
2022/05/21 03:17:32;;;;;;;;;;;;;;;;;;6203014;23;20484;-85
2022/05/21 03:19:58;;;;;;;;;;;;;;;;;;6229473;23;19943;-85
2022/05/21 03:22:24;;;;;;;;;;;;;;;;;;6227623;23;19919;-85
2022/05/21 03:24:50;;;;;;;;;;;;;;;;;;6202735;23;19924;-84
2022/05/21 03:27:15;;;;;;;;;;;;;;;;;;6225884;23;19919;-84
2022/05/21 03:29:41;;;;;;;;;;;;;;;;;;6227625;23;19920;-85
2022/05/21 03:32:07;;;;;;;;;;;;;;;;;;6228168;22;19916;-84
2022/05/21 03:34:36;;;;;;;;;;;;;;;;;;6227800;23;19965;-84
2022/05/21 03:37:02;;;;;;;;;;;;;;;;;;6228317;23;19926;-84
2022/05/21 03:39:28;;;;;;;;;;;;;;;;;;6199569;23;20291;-84
2022/05/21 03:41:54;;;;;;;;;;;;;;;;;;6203347;23;19969;-84
2022/05/21 03:44:20;;;;;;;;;;;;;;;;;;6225853;23;19954;-85
2022/05/21 03:46:46;;;;;;;;;;;;;;;;;;6200883;23;19920;-84
2022/05/21 03:49:12;;;;;;;;;;;;;;;;;;6203702;23;19965;-85
2022/05/21 03:51:38;;;;;;;;;;;;;;;;;;6227383;23;19919;-84
2022/05/21 03:54:04;;;;;;;;;;;;;;;;;;6227648;23;19920;-84
2022/05/21 03:56:30;;;;;;;;;;;;;;;;;;6226096;23;19926;-84
2022/05/21 03:58:56;;;;;;;;;;;;;;;;;;6202714;23;19972;-84
2022/05/21 04:01:22;;;;;;;;;;;;;;;;;;6225415;23;19923;-85
2022/05/21 04:03:50;;;;;;;;;;;;;;;;;;6228071;23;19998;-85
2022/05/21 04:06:16;;;;;;;;;;;;;;;;;;6226045;23;19927;-85
2022/05/21 04:08:41;;;;;;;;;;;;;;;;;;6202238;23;19920;-85
2022/05/21 04:11:07;;;;;;;;;;;;;;;;;;6201915;23;19923;-85
2022/05/21 04:13:33;;;;;;;;;;;;;;;;;;6225021;23;19919;-85
2022/05/21 04:15:59;;;;;;;;;;;;;;;;;;6203247;23;19994;-85
2022/05/21 04:18:26;;;;;;;;;;;;;;;;;;6224708;23;20300;-85
2022/05/21 04:20:52;;;;;;;;;;;;;;;;;;6203774;23;19976;-85
2022/05/21 04:23:18;;;;;;;;;;;;;;;;;;6199867;23;19920;-85
2022/05/21 04:25:44;;;;;;;;;;;;;;;;;;6227437;23;19947;-85
2022/05/21 04:28:11;;;;;;;;;;;;;;;;;;6202007;23;19920;-85
2022/05/21 04:30:37;;;;;;;;;;;;;;;;;;6223910;23;20340;-85
2022/05/21 04:33:03;;;;;;;;;;;;;;;;;;6201424;23;19919;-85
2022/05/21 04:38:13;;;;;;;;;;;;;;;;;;6226068;23;19982;-85
2022/05/21 04:40:39;;;;;;;;;;;;;;;;;;6227286;23;20006;-85
2022/05/21 04:43:05;;;;;;;;;;;;;;;;;;6201453;23;20226;-85
2022/05/21 04:45:31;;;;;;;;;;;;;;;;;;6225547;23;19923;-85
2022/05/21 04:47:57;;;;;;;;;;;;;;;;;;6227075;23;20373;-85
2022/05/21 04:50:23;;;;;;;;;;;;;;;;;;6201347;23;20235;-85
2022/05/21 04:52:49;;;;;;;;;;;;;;;;;;6228432;23;20388;-86
2022/05/21 04:55:15;;;;;;;;;;;;;;;;;;6198960;23;20248;-87
2022/05/21 04:57:41;;;;;;;;;;;;;;;;;;6203366;23;20304;-86
2022/05/21 05:00:07;;;;;;;;;;;;;;;;;;6227620;23;20516;-86
2022/05/21 05:02:32;;;;;;;;;;;;;;;;;;6224959;23;20382;-86
2022/05/21 05:04:58;;;;;;;;;;;;;;;;;;6202497;23;19951;-85
2022/05/21 05:07:24;;;;;;;;;;;;;;;;;;6225396;23;20301;-85
2022/05/21 05:09:51;;;;;;;;;;;;;;;;;;6229932;23;19916;-85
2022/05/21 05:12:17;;;;;;;;;;;;;;;;;;6199699;23;19916;-85
2022/05/21 05:14:43;;;;;;;;;;;;;;;;;;6201634;23;19919;-86
2022/05/21 05:17:09;;;;;;;;;;;;;;;;;;6202191;23;19978;-86
2022/05/21 05:19:35;;;;;;;;;;;;;;;;;;6202162;23;19924;-86
2022/05/21 05:22:00;;;;;;;;;;;;;;;;;;6203390;23;19930;-85
2022/05/21 05:24:26;;;;;;;;;;;;;;;;;;6225695;23;19919;-85
2022/05/21 05:26:52;;;;;;;;;;;;;;;;;;6228775;23;19919;-85
2022/05/21 05:29:18;;;;;;;;;;;;;;;;;;6198818;23;19919;-85
2022/05/21 05:31:44;;;;;;;;;;;;;;;;;;6229181;23;19995;-86
2022/05/21 05:34:10;;;;;;;;;;;;;;;;;;6202477;23;19919;-85
2022/05/21 05:36:36;;;;;;;;;;;;;;;;;;6199097;23;19965;-85
2022/05/21 05:39:02;;;;;;;;;;;;;;;;;;6177548;23;19920;-85
2022/05/21 05:41:28;;;;;;;;;;;;;;;;;;6175381;23;19931;-85
2022/05/21 05:43:54;;;;;;;;;;;;;;;;;;6203585;23;20307;-85
2022/05/21 05:46:20;;;;;;;;;;;;;;;;;;6201849;23;19947;-85
2022/05/21 05:48:46;;;;;;;;;;;;;;;;;;6178519;23;19990;-85
2022/05/21 05:51:13;;;;;;;;;;;;;;;;;;6201794;23;19919;-85
2022/05/21 05:53:39;;;;;;;;;;;;;;;;;;6203649;23;20344;-85
2022/05/21 05:56:05;;;;;;;;;;;;;;;;;;6206427;23;19930;-85
2022/05/21 06:01:15;;;;;;;;;;;;;;;;;;6201873;23;20249;-86
2022/05/21 06:03:42;;;;;;;;;;;;;;;;;;6213630;22;19923;-86
2022/05/21 06:06:08;;;;;;;;;;;;;;;;;;6208046;22;19919;-86
2022/05/21 06:08:34;;;;;;;;;;;;;;;;;;6207679;22;19925;-85
2022/05/21 06:10:59;;;;;;;;;;;;;;;;;;6208171;22;20011;-85
2022/05/21 06:13:25;;;;;;;;;;;;;;;;;;6231067;22;19919;-85
2022/05/21 06:15:51;;;;;;;;;;;;;;;;;;6210191;22;19915;-85
2022/05/21 06:18:19;;;;;;;;;;;;;;;;;;6204740;22;19915;-86
2022/05/21 06:20:45;;;;;;;;;;;;;;;;;;6234485;22;20229;-85
2022/05/21 06:23:15;;;;;;;;;;;;;;;;;;6234521;22;19968;-86
2022/05/21 06:25:40;;;;;;;;;;;;;;;;;;6233846;22;20009;-85
2022/05/21 06:28:06;;;;;;;;;;;;;;;;;;6210708;22;20316;-86
2022/05/21 06:30:32;;;;;;;;;;;;;;;;;;6231604;22;20356;-86
2022/05/21 06:32:59;;;;;;;;;;;;;;;;;;6208617;22;19919;-85
2022/05/21 06:35:26;;;;;;;;;;;;;;;;;;6206210;22;19926;-86
2022/05/21 06:37:52;;;;;;;;;;;;;;;;;;6230919;22;20414;-86
2022/05/21 06:40:18;;;;;;;;;;;;;;;;;;6229099;22;20010;-86
2022/05/21 06:42:46;;;;;;;;;;;;;;;;;;6210961;22;19915;-86
2022/05/21 06:45:12;;;;;;;;;;;;;;;;;;6234062;22;19923;-86
2022/05/21 06:47:38;;;;;;;;;;;;;;;;;;6231110;22;19946;-86
2022/05/21 06:50:04;;;;;;;;;;;;;;;;;;6234858;22;19923;-86
2022/05/21 06:52:31;;;;;;;;;;;;;;;;;;6207578;22;20247;-86
2022/05/21 06:54:57;;;;;;;;;;;;;;;;;;6234049;22;19919;-86
2022/05/21 06:57:26;;;;;;;;;;;;;;;;;;6208463;22;19919;-86
2022/05/21 06:59:52;;;;;;;;;;;;;;;;;;6209807;22;19938;-86
2022/05/21 07:02:18;;;;;;;;;;;;;;;;;;6209413;22;20328;-85
2022/05/21 07:07:35;;;;;;;;;;;;;;;;;;6231125;22;19960;-86
2022/05/21 07:10:01;;;;;;;;;;;;;;;;;;6207741;22;20599;-86
2022/05/21 07:12:27;;;;;;;;;;;;;;;;;;6230512;22;19919;-86
2022/05/21 07:14:54;;;;;;;;;;;;;;;;;;6234438;22;20351;-86
2022/05/21 07:17:21;;;;;;;;;;;;;;;;;;6205934;22;19915;-86
2022/05/21 07:19:48;;;;;;;;;;;;;;;;;;6234561;22;19919;-86
2022/05/21 07:22:14;;;;;;;;;;;;;;;;;;6231241;22;19929;-87
2022/05/21 07:24:42;;;;;;;;;;;;;;;;;;6234271;22;19919;-86
2022/05/21 07:27:09;;;;;;;;;;;;;;;;;;6232670;22;19982;-86
2022/05/21 07:29:35;;;;;;;;;;;;;;;;;;6207518;22;19962;-86
2022/05/21 07:32:01;;;;;;;;;;;;;;;;;;6209748;22;20649;-86
2022/05/21 07:34:34;;;;;;;;;;;;;;;;;;6234603;22;20495;-87
2022/05/21 07:37:01;;;;;;;;;;;;;;;;;;6234125;22;20004;-86
2022/05/21 07:39:28;;;;;;;;;;;;;;;;;;6207042;22;20256;-86
2022/05/21 07:41:54;;;;;;;;;;;;;;;;;;6208483;22;19932;-86
2022/05/21 07:44:22;;;;;;;;;;;;;;;;;;6205077;22;19915;-87
2022/05/21 07:46:48;;;;;;;;;;;;;;;;;;6207528;22;19976;-87
2022/05/21 07:49:14;;;;;;;;;;;;;;;;;;6207640;22;20366;-87
2022/05/21 07:51:40;;;;;;;;;;;;;;;;;;6207581;22;20317;-87
2022/05/21 07:54:06;;;;;;;;;;;;;;;;;;6234902;22;19915;-87
2022/05/21 07:56:32;;;;;;;;;;;;;;;;;;6231473;22;20412;-86
2022/05/21 07:58:58;;;;;;;;;;;;;;;;;;6208471;22;19919;-86
2022/05/21 08:01:24;;;;;;;;;;;;;;;;;;6206139;22;19934;-87
2022/05/21 08:03:50;;;;;;;;;;;;;;;;;;6207708;22;19998;-87
2022/05/21 08:06:17;;;;;;;;;;;;;;;;;;6229615;22;19946;-87
2022/05/21 08:08:43;;;;;;;;;;;;;;;;;;6208461;22;19968;-86
2022/05/21 08:11:09;;;;;;;;;;;;;;;;;;6210090;22;19993;-87
2022/05/21 08:13:37;;;;;;;;;;;;;;;;;;6205080;22;19919;-88
2022/05/21 08:16:03;;;;;;;;;;;;;;;;;;6207807;22;19990;-88
2022/05/21 08:18:31;;;;;;;;;;;;;;;;;;6206438;22;20373;-89
2022/05/21 08:20:59;;;;;;;;;;;;;;;;;;6232544;22;19923;-89
2022/05/21 08:29:02;;;;;;;;;;;;;;;;;;6233158;22;20487;-88
2022/05/21 08:31:28;;;;;;;;;;;;;;;;;;6231050;22;20276;-88
2022/05/21 08:33:54;;;;;;;;;;;;;;;;;;6209523;22;19963;-88
2022/05/21 08:36:20;;;;;;;;;;;;;;;;;;6204577;22;19926;-89
2022/05/21 08:38:47;;;;;;;;;;;;;;;;;;6207097;22;19946;-88
2022/05/21 08:41:14;;;;;;;;;;;;;;;;;;6231791;22;19930;-88
2022/05/21 08:43:40;;;;;;;;;;;;;;;;;;6232124;22;19990;-88
2022/05/21 08:46:07;;;;;;;;;;;;;;;;;;6232963;22;20367;-90
2022/05/21 08:48:34;;;;;;;;;;;;;;;;;;6231302;22;20175;-90
2022/05/21 08:51:02;;;;;;;;;;;;;;;;;;6234292;22;19991;-89
2022/05/21 08:53:29;;;;;;;;;;;;;;;;;;6258346;22;19954;-89
2022/05/21 08:55:55;;;;;;;;;;;;;;;;;;6233566;22;19919;-87
2022/05/21 08:58:23;;;;;;;;;;;;;;;;;;6206537;22;19919;-87
2022/05/21 09:00:50;;;;;;;;;;;;;;;;;;6234793;22;20307;-87
2022/05/21 09:03:17;;;;;;;;;;;;;;;;;;6205855;22;19924;-87
2022/05/21 09:05:43;;;;;;;;;;;;;;;;;;6233076;22;19919;-87
2022/05/21 09:08:10;;;;;;;;;;;;;;;;;;6257620;22;19927;-87
2022/05/21 09:10:38;;;;;;;;;;;;;;;;;;6225798;22;19923;-87
2022/05/21 09:13:04;;;;;;;;;;;;;;;;;;6227585;22;19988;-86
2022/05/21 09:18:17;;;;;;;;;;;;;;;;;;6226893;22;19994;-87
2022/05/21 09:20:43;;;;;;;;;;;;;;;;;;6230545;22;20490;-87
2022/05/21 09:23:11;;;;;;;;;;;;;;;;;;6207879;22;19919;-87
2022/05/21 09:25:41;;;;;;;;;;;;;;;;;;6210497;22;19981;-88
2022/05/21 09:28:07;;;;;;;;;;;;;;;;;;6235148;22;19921;-87
2022/05/21 09:30:33;;;;;;;;;;;;;;;;;;6207461;22;19986;-87
2022/05/21 09:32:59;;;;;;;;;;;;;;;;;;6232874;22;20405;-86
2022/05/21 09:35:34;;;;;;;;;;;;;;;;;;6206994;22;19955;-87
2022/05/21 09:38:01;;;;;;;;;;;;;;;;;;6204360;22;19993;-88
2022/05/21 09:40:27;;;;;;;;;;;;;;;;;;6207570;22;20377;-87
2022/05/21 09:45:38;;;;;;;;;;;;;;;;;;6229770;22;19961;-86
2022/05/21 09:48:04;;;;;;;;;;;;;;;;;;6207567;22;19915;-86
2022/05/21 09:50:30;;;;;;;;;;;;;;;;;;6203252;22;20069;-86
2022/05/21 09:52:56;;;;;;;;;;;;;;;;;;6206072;22;20014;-87
2022/05/21 09:55:22;;;;;;;;;;;;;;;;;;6230988;22;19919;-86
2022/05/21 09:57:47;;;;;;;;;;;;;;;;;;6209024;22;20248;-87
2022/05/21 10:00:13;;;;;;;;;;;;;;;;;;6206346;22;19919;-87
2022/05/21 10:02:39;;;;;;;;;;;;;;;;;;6209738;22;19923;-87
2022/05/21 10:05:08;;;;;;;;;;;;;;;;;;6210811;22;19920;-86
2022/05/21 10:13:07;;;;;;;;;;;;;;;;;;6237400;22;20328;-86
2022/05/21 10:15:34;;;;;;;;;;;;;;;;;;6209145;22;19990;-86
2022/05/21 10:18:01;;;;;;;;;;;;;;;;;;6211218;22;20308;-88
2022/05/21 10:20:27;;;;;;;;;;;;;;;;;;6210016;22;19923;-87
2022/05/21 10:22:53;;;;;;;;;;;;;;;;;;6261962;22;19919;-86
2022/05/21 10:25:28;;;;;;;;;;;;;;;;;;6261552;22;19926;-86
2022/05/21 10:27:54;;;;;;;;;;;;;;;;;;6237520;22;19925;-87
2022/05/21 10:30:22;;;;;;;;;;;;;;;;;;6236648;22;19919;-87
2022/05/21 10:32:48;;;;;;;;;;;;;;;;;;6237893;22;19926;-86
2022/05/21 10:35:14;;;;;;;;;;;;;;;;;;6210899;22;19973;-87
2022/05/21 10:37:40;;;;;;;;;;;;;;;;;;6264278;22;19919;-86
2022/05/21 10:40:08;;;;;;;;;;;;;;;;;;6237972;22;20316;-87
2022/05/21 10:42:36;;;;;;;;;;;;;;;;;;6259896;22;20295;-87
2022/05/21 10:45:02;;;;;;;;;;;;;;;;;;6235823;22;19968;-87
2022/05/21 10:47:27;;;;;;;;;;;;;;;;;;6235441;22;19993;-87
2022/05/21 10:49:57;;;;;;;;;;;;;;;;;;6237989;22;19919;-87
2022/05/21 10:52:23;;;;;;;;;;;;;;;;;;6233919;22;20503;-87
2022/05/21 10:54:50;;;;;;;;;;;;;;;;;;6206673;22;19935;-87
2022/05/21 10:57:18;;;;;;;;;;;;;;;;;;6233613;22;19915;-87
2022/05/21 10:59:45;;;;;;;;;;;;;;;;;;6234459;22;20328;-88
2022/05/21 11:02:10;;;;;;;;;;;;;;;;;;6234008;22;20615;-86
2022/05/21 11:04:38;;;;;;;;;;;;;;;;;;6233979;22;19923;-87
2022/05/21 11:07:05;;;;;;;;;;;;;;;;;;6264130;22;19942;-85
2022/05/21 11:09:31;;;;;;;;;;;;;;;;;;6234685;22;19923;-86
2022/05/21 11:12:00;;;;;;;;;;;;;;;;;;6236705;22;19919;-85
2022/05/21 11:14:27;;;;;;;;;;;;;;;;;;6233077;22;19919;-85
2022/05/21 11:16:53;;;;;;;;;;;;;;;;;;6233956;22;20282;-85
2022/05/21 11:19:19;;;;;;;;;;;;;;;;;;6233010;22;20073;-85
2022/05/21 11:21:45;;;;;;;;;;;;;;;;;;6211870;22;19920;-85
2022/05/21 11:24:14;;;;;;;;;;;;;;;;;;6211563;22;19947;-86
2022/05/21 11:26:40;;;;;;;;;;;;;;;;;;6211041;22;19919;-85
2022/05/21 11:29:06;;;;;;;;;;;;;;;;;;6212551;22;20062;-85
2022/05/21 11:39:46;;;;;;;;;;;;;;;;;;6236678;22;20286;-85
2022/05/21 11:42:12;;;;;;;;;;;;;;;;;;6210233;22;19920;-85
2022/05/21 11:47:24;;;;;;;;;;;;;;;;;;6232115;22;19967;-85
2022/05/21 11:49:50;;;;;;;;;;;;;;;;;;6208984;22;20712;-84
2022/05/21 11:52:25;;;;;;;;;;;;;;;;;;6233785;22;20283;-84
2022/05/21 11:54:51;;;;;;;;;;;;;;;;;;6259750;22;19923;-84
2022/05/21 11:57:17;;;;;;;;;;;;;;;;;;6230321;22;19922;-84
2022/05/21 11:59:42;;;;;;;;;;;;;;;;;;6259209;22;20346;-84
2022/05/21 12:02:10;;;;;;;;;;;;;;;;;;6232146;22;19923;-84
2022/05/21 12:04:40;;;;;;;;;;;;;;;;;;6258308;22;19981;-85
2022/05/21 12:07:06;;;;;;;;;;;;;;;;;;6230360;22;19919;-85
2022/05/21 12:09:34;;;;;;;;;;;;;;;;;;6200409;22;20414;-85
2022/05/21 12:12:00;;;;;;;;;;;;;;;;;;6227431;22;20427;-85
2022/05/21 12:14:27;;;;;;;;;;;;;;;;;;6202575;22;19930;-85
2022/05/21 12:16:53;;;;;;;;;;;;;;;;;;6229549;22;19925;-85
2022/05/21 12:19:21;;;;;;;;;;;;;;;;;;6255628;22;19927;-84
2022/05/21 12:21:48;;;;;;;;;;;;;;;;;;6257183;22;19923;-84
2022/05/21 12:24:16;;;;;;;;;;;;;;;;;;6255835;22;19925;-86
2022/05/21 12:26:43;;;;;;;;;;;;;;;;;;6258597;22;20338;-85
2022/05/21 12:29:11;;;;;;;;;;;;;;;;;;6232842;22;20295;-85
2022/05/21 12:31:37;;;;;;;;;;;;;;;;;;6206258;22;19919;-86
2022/05/21 12:34:03;;;;;;;;;;;;;;;;;;6206026;22;19933;-86
2022/05/21 12:36:29;;;;;;;;;;;;;;;;;;6204827;22;19923;-86
2022/05/21 12:38:54;;;;;;;;;;;;;;;;;;6233719;22;20252;-86
2022/05/21 12:41:20;;;;;;;;;;;;;;;;;;6229123;22;19976;-85
2022/05/21 12:43:47;;;;;;;;;;;;;;;;;;6259281;22;19920;-85
2022/05/21 12:46:13;;;;;;;;;;;;;;;;;;6205464;22;19919;-86
2022/05/21 12:48:40;;;;;;;;;;;;;;;;;;6205881;22;20344;-85
2022/05/21 12:51:10;;;;;;;;;;;;;;;;;;6206844;22;19919;-86
2022/05/21 12:53:37;;;;;;;;;;;;;;;;;;6203496;22;19919;-85
2022/05/21 12:56:05;;;;;;;;;;;;;;;;;;6231231;22;19926;-86
2022/05/21 12:58:31;;;;;;;;;;;;;;;;;;6228747;22;19990;-86
2022/05/21 13:00:57;;;;;;;;;;;;;;;;;;6231141;22;20762;-86
2022/05/21 13:03:24;;;;;;;;;;;;;;;;;;6228508;22;20256;-85
2022/05/21 13:05:51;;;;;;;;;;;;;;;;;;6232555;22;19993;-85
2022/05/21 13:08:17;;;;;;;;;;;;;;;;;;6207098;22;19994;-85
2022/05/21 13:10:43;;;;;;;;;;;;;;;;;;6231437;22;19954;-85
2022/05/21 13:13:10;;;;;;;;;;;;;;;;;;6231852;22;19965;-85
2022/05/21 13:15:38;;;;;;;;;;;;;;;;;;6229458;22;20275;-85
2022/05/21 13:18:04;;;;;;;;;;;;;;;;;;6232482;22;20759;-85
2022/05/21 13:20:31;;;;;;;;;;;;;;;;;;6230162;22;19967;-85
2022/05/21 13:22:58;;;;;;;;;;;;;;;;;;6258382;22;19916;-85
2022/05/21 13:25:24;;;;;;;;;;;;;;;;;;6204580;22;19925;-86
2022/05/21 13:27:52;;;;;;;;;;;;;;;;;;6230086;22;19919;-85
2022/05/21 13:30:18;;;;;;;;;;;;;;;;;;6225804;22;19942;-85
2022/05/21 13:32:45;;;;;;;;;;;;;;;;;;6257261;22;19915;-86
2022/05/21 13:35:12;;;;;;;;;;;;;;;;;;6256182;22;19919;-85
2022/05/21 13:37:47;;;;;;;;;;;;;;;;;;6256358;22;20664;-85
2022/05/21 13:40:12;;;;;;;;;;;;;;;;;;6203620;22;19950;-86
2022/05/21 13:42:38;;;;;;;;;;;;;;;;;;6205270;22;19942;-86
2022/05/21 13:45:06;;;;;;;;;;;;;;;;;;6227222;22;19923;-84
2022/05/21 13:47:32;;;;;;;;;;;;;;;;;;6226377;22;20221;-84
2022/05/21 13:50:00;;;;;;;;;;;;;;;;;;6227973;22;19926;-84
2022/05/21 13:52:26;;;;;;;;;;;;;;;;;;6251250;22;19919;-85
2022/05/21 13:54:53;;;;;;;;;;;;;;;;;;6203781;22;20239;-85
2022/05/21 13:57:34;;;;;;;;;;;;;;;;;;6256639;22;19969;-85
2022/05/21 14:00:01;;;;;;;;;;;;;;;;;;6204976;22;19923;-84
2022/05/21 14:02:27;;;;;;;;;;;;;;;;;;6229774;22;19998;-84
2022/05/21 14:04:55;;;;;;;;;;;;;;;;;;6228882;23;19998;-85
2022/05/21 14:07:21;;;;;;;;;;;;;;;;;;6228316;23;19954;-85
2022/05/21 14:09:47;;;;;;;;;;;;;;;;;;6231073;23;20350;-85
2022/05/21 14:12:14;;;;;;;;;;;;;;;;;;6198835;23;19954;-84
2022/05/21 14:14:41;;;;;;;;;;;;;;;;;;6200685;23;19919;-84
2022/05/21 14:17:10;;;;;;;;;;;;;;;;;;6227550;23;20256;-85
2022/05/21 14:19:52;;;;;;;;;;;;;;;;;;6231763;22;20341;-83
2022/05/21 14:22:18;;;;;;;;;;;;;;;;;;6174133;23;20022;-84
2022/05/21 14:24:44;;;;;;;;;;;;;;;;;;6228132;23;19961;-85
2022/05/21 14:27:12;;;;;;;;;;;;;;;;;;6228211;23;19927;-85
2022/05/21 14:29:52;;;;;;;;;;;;;;;;;;6180179;23;19946;-85
2022/05/21 14:32:20;;;;;;;;;;;;;;;;;;6201296;23;19998;-85
2022/05/21 14:34:50;;;;;;;;;;;;;;;;;;6229487;23;20006;-83
2022/05/21 14:37:16;;;;;;;;;;;;;;;;;;6225877;23;19973;-85
2022/05/21 14:39:42;;;;;;;;;;;;;;;;;;6204981;23;19921;-84
2022/05/21 14:42:09;;;;;;;;;;;;;;;;;;6230069;23;19923;-85
2022/05/21 14:44:38;;;;;;;;;;;;;;;;;;6231599;22;19926;-85
2022/05/21 14:52:49;;;;;;;;;;;;;;;;;;6229092;23;19924;-86
2022/05/21 14:52:53;;;;;;;;;;;;;;;;;;6230114;23;19991;-86
2022/05/21 14:55:19;;;;;;;;;;;;;;;;;;6228107;23;19923;-86
2022/05/21 14:57:45;;;;;;;;;;;;;;;;;;6230229;23;20333;-86
2022/05/21 15:00:11;;;;;;;;;;;;;;;;;;6229571;23;19922;-85
2022/05/21 15:02:37;;;;;;;;;;;;;;;;;;6225089;23;19920;-85
2022/05/21 15:05:10;;;;;;;;;;;;;;;;;;6202576;23;19934;-85
2022/05/21 15:07:36;;;;;;;;;;;;;;;;;;6225826;23;19951;-86
2022/05/21 15:10:04;;;;;;;;;;;;;;;;;;6202820;23;19938;-86
2022/05/21 15:12:45;;;;;;;;;;;;;;;;;;6196879;23;19920;-85
2022/05/21 15:15:15;;;;;;;;;;;;;;;;;;6168878;23;20668;-85
2022/05/21 15:17:43;;;;;;;;;;;;;;;;;;6172479;23;20320;-86
2022/05/21 15:20:13;;;;;;;;;;;;;;;;;;6170591;23;20047;-85
2022/05/21 15:22:40;;;;;;;;;;;;;;;;;;6167309;23;20400;-86
2022/05/21 15:25:08;;;;;;;;;;;;;;;;;;6168246;23;19919;-84
2022/05/21 15:27:38;;;;;;;;;;;;;;;;;;6190721;23;19995;-81
2022/05/21 15:30:04;;;;;;;;;;;;;;;;;;6168061;23;20412;-81
2022/05/21 15:32:30;;;;;;;;;;;;;;;;;;6193344;23;19922;-81
2022/05/21 15:34:57;;;;;;;;;;;;;;;;;;6194250;23;19919;-81
2022/05/21 15:37:24;;;;;;;;;;;;;;;;;;6191053;23;19930;-82
2022/05/21 15:39:52;;;;;;;;;;;;;;;;;;6192803;23;19931;-82
2022/05/21 15:42:19;;;;;;;;;;;;;;;;;;6191096;23;20003;-81
2022/05/21 15:44:47;;;;;;;;;;;;;;;;;;6223761;23;19930;-81
2022/05/21 15:47:16;;;;;;;;;;;;;;;;;;6224508;22;19916;-81
2022/05/21 15:49:42;;;;;;;;;;;;;;;;;;6228165;22;19947;-81
2022/05/21 15:52:10;;;;;;;;;;;;;;;;;;6196440;23;20389;-81
2022/05/21 15:54:35;;;;;;;;;;;;;;;;;;6196773;23;20215;-81
2022/05/21 15:57:01;;;;;;;;;;;;;;;;;;6225269;23;19979;-81
2022/05/21 15:59:29;;;;;;;;;;;;;;;;;;6197001;23;19919;-81
2022/05/21 16:01:56;;;;;;;;;;;;;;;;;;6225962;23;19923;-81
2022/05/21 16:04:22;;;;;;;;;;;;;;;;;;6226625;22;20626;-80
2022/05/21 16:06:48;;;;;;;;;;;;;;;;;;6258858;22;19974;-81
2022/05/21 16:09:17;;;;;;;;;;;;;;;;;;6229350;22;19923;-81
2022/05/21 16:11:44;;;;;;;;;;;;;;;;;;6257489;22;19919;-80
2022/05/21 16:14:10;;;;;;;;;;;;;;;;;;6257444;22;19951;-81
2022/05/21 16:16:36;;;;;;;;;;;;;;;;;;6227317;22;19977;-80
2022/05/21 16:19:02;;;;;;;;;;;;;;;;;;6256684;22;19942;-81
2022/05/21 16:21:28;;;;;;;;;;;;;;;;;;6258433;22;19935;-80
2022/05/21 16:23:56;;;;;;;;;;;;;;;;;;6210525;22;19950;-80
2022/05/21 16:29:07;;;;;;;;;;;;;;;;;;6233268;22;19994;-80
2022/05/21 16:31:33;;;;;;;;;;;;;;;;;;6230988;22;19954;-81
2022/05/21 16:33:59;;;;;;;;;;;;;;;;;;6231413;22;19923;-81
2022/05/21 16:36:26;;;;;;;;;;;;;;;;;;6229592;22;19918;-81
2022/05/21 16:38:52;;;;;;;;;;;;;;;;;;6232742;22;19919;-81
2022/05/21 16:41:18;;;;;;;;;;;;;;;;;;6228256;22;20324;-85
2022/05/21 16:43:44;;;;;;;;;;;;;;;;;;6204283;22;20344;-85
2022/05/21 16:46:11;;;;;;;;;;;;;;;;;;6206379;22;19958;-85
2022/05/21 16:48:40;;;;;;;;;;;;;;;;;;6206626;22;19981;-84
2022/05/21 16:51:07;;;;;;;;;;;;;;;;;;6231771;22;20613;-85
2022/05/21 16:53:33;;;;;;;;;;;;;;;;;;6204010;22;20223;-86
2022/05/21 16:55:59;;;;;;;;;;;;;;;;;;6204050;22;19937;-85
2022/05/21 16:58:25;;;;;;;;;;;;;;;;;;6227291;22;19989;-85
2022/05/21 17:00:51;;;;;;;;;;;;;;;;;;6206223;22;19930;-85
2022/05/21 17:03:17;;;;;;;;;;;;;;;;;;6203472;22;20408;-84
2022/05/21 17:05:43;;;;;;;;;;;;;;;;;;6205744;22;19923;-85
2022/05/21 17:08:09;;;;;;;;;;;;;;;;;;6205041;22;19919;-85
2022/05/21 17:10:35;;;;;;;;;;;;;;;;;;6203184;22;19972;-85
2022/05/21 17:13:01;;;;;;;;;;;;;;;;;;6203070;22;20321;-84
2022/05/21 17:15:27;;;;;;;;;;;;;;;;;;6203575;22;19972;-84
2022/05/21 17:17:53;;;;;;;;;;;;;;;;;;6229954;22;19919;-85
2022/05/21 17:20:19;;;;;;;;;;;;;;;;;;6230560;22;19984;-84
2022/05/21 17:22:44;;;;;;;;;;;;;;;;;;6232452;22;19923;-84
2022/05/21 17:25:10;;;;;;;;;;;;;;;;;;6230385;22;19926;-84
2022/05/21 17:30:30;;;;;;;;;;;;;;;;;;6229364;22;20258;-84
2022/05/21 17:32:56;;;;;;;;;;;;;;;;;;6206322;22;19935;-84
2022/05/21 17:35:22;;;;;;;;;;;;;;;;;;6231766;22;19927;-85